sensor_id;sensor_type;location;lat;lon;timestamp;P1;durP1;ratioP1;P2;durP2;ratioP2
2267;SDS011;11052;43.338;25.502;2023-06-22T00:01:16;3.10;;;2.33;;
2267;SDS011;11052;43.338;25.502;2023-06-22T00:03:43;3.10;;;2.30;;
2267;SDS011;11052;43.338;25.502;2023-06-22T00:06:10;4.00;;;3.63;;
2267;SDS011;11052;43.338;25.502;2023-06-22T00:08:38;3.83;;;2.03;;
2267;SDS011;11052;43.338;25.502;2023-06-22T00:11:06;2.50;;;2.30;;
2267;SDS011;11052;43.338;25.502;2023-06-22T00:13:33;2.60;;;2.40;;
2267;SDS011;11052;43.338;25.502;2023-06-22T00:16:00;2.77;;;2.47;;
2267;SDS011;11052;43.338;25.502;2023-06-22T00:18:27;3.00;;;2.80;;
2267;SDS011;11052;43.338;25.502;2023-06-22T00:20:55;2.37;;;2.23;;
2267;SDS011;11052;43.338;25.502;2023-06-22T00:23:25;3.57;;;2.43;;
2267;SDS011;11052;43.338;25.502;2023-06-22T00:25:55;4.53;;;2.90;;
2267;SDS011;11052;43.338;25.502;2023-06-22T00:28:22;3.90;;;2.63;;
2267;SDS011;11052;43.338;25.502;2023-06-22T00:30:49;3.10;;;2.07;;
2267;SDS011;11052;43.338;25.502;2023-06-22T00:33:16;3.10;;;2.60;;
2267;SDS011;11052;43.338;25.502;2023-06-22T00:35:43;4.73;;;3.03;;
2267;SDS011;11052;43.338;25.502;2023-06-22T00:38:11;3.97;;;2.83;;
2267;SDS011;11052;43.338;25.502;2023-06-22T00:40:38;2.63;;;2.03;;
2267;SDS011;11052;43.338;25.502;2023-06-22T00:43:06;2.20;;;1.83;;
2267;SDS011;11052;43.338;25.502;2023-06-22T00:45:33;3.93;;;2.10;;
2267;SDS011;11052;43.338;25.502;2023-06-22T00:48:01;2.97;;;2.77;;
2267;SDS011;11052;43.338;25.502;2023-06-22T00:50:29;3.93;;;2.27;;
2267;SDS011;11052;43.338;25.502;2023-06-22T00:53:00;3.40;;;3.10;;
2267;SDS011;11052;43.338;25.502;2023-06-22T00:55:33;3.27;;;3.00;;
2267;SDS011;11052;43.338;25.502;2023-06-22T00:58:02;3.53;;;2.03;;
2267;SDS011;11052;43.338;25.502;2023-06-22T01:00:34;1.40;;;1.30;;
2267;SDS011;11052;43.338;25.502;2023-06-22T01:03:01;3.43;;;1.97;;
2267;SDS011;11052;43.338;25.502;2023-06-22T01:05:34;2.70;;;2.37;;
2267;SDS011;11052;43.338;25.502;2023-06-22T01:08:14;2.97;;;2.40;;
2267;SDS011;11052;43.338;25.502;2023-06-22T01:10:50;2.70;;;2.13;;
2267;SDS011;11052;43.338;25.502;2023-06-22T01:13:23;3.07;;;2.20;;
2267;SDS011;11052;43.338;25.502;2023-06-22T01:15:59;2.10;;;1.90;;
2267;SDS011;11052;43.338;25.502;2023-06-22T01:18:30;3.37;;;3.00;;
2267;SDS011;11052;43.338;25.502;2023-06-22T01:21:01;2.73;;;1.93;;
2267;SDS011;11052;43.338;25.502;2023-06-22T01:23:36;2.57;;;2.13;;
2267;SDS011;11052;43.338;25.502;2023-06-22T01:26:16;3.70;;;2.50;;
2267;SDS011;11052;43.338;25.502;2023-06-22T01:28:49;7.10;;;2.47;;
2267;SDS011;11052;43.338;25.502;2023-06-22T01:31:17;5.60;;;1.80;;
2267;SDS011;11052;43.338;25.502;2023-06-22T01:33:47;2.40;;;2.20;;
2267;SDS011;11052;43.338;25.502;2023-06-22T01:36:17;3.80;;;2.40;;
2267;SDS011;11052;43.338;25.502;2023-06-22T01:38:45;3.87;;;3.50;;
2267;SDS011;11052;43.338;25.502;2023-06-22T01:41:13;3.43;;;3.13;;
2267;SDS011;11052;43.338;25.502;2023-06-22T01:43:41;2.90;;;2.20;;
2267;SDS011;11052;43.338;25.502;2023-06-22T01:46:11;4.20;;;2.70;;
2267;SDS011;11052;43.338;25.502;2023-06-22T01:48:39;3.10;;;2.60;;
2267;SDS011;11052;43.338;25.502;2023-06-22T01:51:06;4.47;;;3.43;;
2267;SDS011;11052;43.338;25.502;2023-06-22T01:53:34;4.00;;;2.77;;
2267;SDS011;11052;43.338;25.502;2023-06-22T01:56:01;2.47;;;2.23;;
2267;SDS011;11052;43.338;25.502;2023-06-22T01:58:31;2.60;;;2.20;;
2267;SDS011;11052;43.338;25.502;2023-06-22T02:01:00;3.17;;;2.20;;
2267;SDS011;11052;43.338;25.502;2023-06-22T02:03:38;3.00;;;2.60;;
2267;SDS011;11052;43.338;25.502;2023-06-22T02:06:21;3.43;;;2.80;;
2267;SDS011;11052;43.338;25.502;2023-06-22T02:08:55;2.30;;;2.10;;
2267;SDS011;11052;43.338;25.502;2023-06-22T02:11:27;2.77;;;2.03;;
2267;SDS011;11052;43.338;25.502;2023-06-22T02:13:57;2.77;;;1.73;;
2267;SDS011;11052;43.338;25.502;2023-06-22T02:16:25;3.57;;;2.30;;
2267;SDS011;11052;43.338;25.502;2023-06-22T02:18:56;3.73;;;2.43;;
2267;SDS011;11052;43.338;25.502;2023-06-22T02:21:27;2.43;;;2.20;;
2267;SDS011;11052;43.338;25.502;2023-06-22T02:23:54;2.33;;;1.80;;
2267;SDS011;11052;43.338;25.502;2023-06-22T02:26:21;5.50;;;3.37;;
2267;SDS011;11052;43.338;25.502;2023-06-22T02:28:49;3.07;;;2.50;;
2267;SDS011;11052;43.338;25.502;2023-06-22T02:31:16;2.33;;;1.60;;
2267;SDS011;11052;43.338;25.502;2023-06-22T02:33:43;3.67;;;2.53;;
2267;SDS011;11052;43.338;25.502;2023-06-22T02:36:12;2.50;;;2.30;;
2267;SDS011;11052;43.338;25.502;2023-06-22T02:38:39;3.30;;;2.97;;
2267;SDS011;11052;43.338;25.502;2023-06-22T02:41:13;2.00;;;1.90;;
2267;SDS011;11052;43.338;25.502;2023-06-22T02:43:43;4.57;;;2.60;;
2267;SDS011;11052;43.338;25.502;2023-06-22T02:46:11;2.87;;;2.23;;
2267;SDS011;11052;43.338;25.502;2023-06-22T02:48:39;2.97;;;2.70;;
2267;SDS011;11052;43.338;25.502;2023-06-22T02:51:06;4.03;;;2.80;;
2267;SDS011;11052;43.338;25.502;2023-06-22T02:53:34;1.73;;;1.63;;
2267;SDS011;11052;43.338;25.502;2023-06-22T02:56:01;2.73;;;2.53;;
2267;SDS011;11052;43.338;25.502;2023-06-22T02:58:30;3.03;;;2.63;;
2267;SDS011;11052;43.338;25.502;2023-06-22T03:01:03;3.00;;;2.70;;
2267;SDS011;11052;43.338;25.502;2023-06-22T03:03:31;4.90;;;1.90;;
2267;SDS011;11052;43.338;25.502;2023-06-22T03:05:58;4.00;;;3.27;;
2267;SDS011;11052;43.338;25.502;2023-06-22T03:08:26;2.83;;;2.23;;
2267;SDS011;11052;43.338;25.502;2023-06-22T03:10:55;3.10;;;2.37;;
2267;SDS011;11052;43.338;25.502;2023-06-22T03:13:23;3.13;;;2.27;;
2267;SDS011;11052;43.338;25.502;2023-06-22T03:15:50;3.83;;;3.00;;
2267;SDS011;11052;43.338;25.502;2023-06-22T03:18:17;3.73;;;3.00;;
2267;SDS011;11052;43.338;25.502;2023-06-22T03:20:47;3.20;;;2.40;;
2267;SDS011;11052;43.338;25.502;2023-06-22T03:23:14;3.63;;;3.33;;
2267;SDS011;11052;43.338;25.502;2023-06-22T03:25:42;4.67;;;2.23;;
2267;SDS011;11052;43.338;25.502;2023-06-22T03:28:11;2.17;;;1.97;;
2267;SDS011;11052;43.338;25.502;2023-06-22T03:30:38;1.60;;;1.50;;
2267;SDS011;11052;43.338;25.502;2023-06-22T03:33:05;2.67;;;1.90;;
2267;SDS011;11052;43.338;25.502;2023-06-22T03:35:32;5.80;;;3.03;;
2267;SDS011;11052;43.338;25.502;2023-06-22T03:37:59;3.77;;;3.47;;
2267;SDS011;11052;43.338;25.502;2023-06-22T03:40:26;1.70;;;1.60;;
2267;SDS011;11052;43.338;25.502;2023-06-22T03:42:54;4.43;;;2.40;;
2267;SDS011;11052;43.338;25.502;2023-06-22T03:45:23;3.00;;;2.60;;
2267;SDS011;11052;43.338;25.502;2023-06-22T03:47:50;2.87;;;2.43;;
2267;SDS011;11052;43.338;25.502;2023-06-22T03:50:17;3.00;;;2.73;;
2267;SDS011;11052;43.338;25.502;2023-06-22T03:52:45;1.70;;;1.60;;
2267;SDS011;11052;43.338;25.502;2023-06-22T03:55:12;2.90;;;2.63;;
2267;SDS011;11052;43.338;25.502;2023-06-22T03:57:39;2.70;;;2.17;;
2267;SDS011;11052;43.338;25.502;2023-06-22T04:00:07;2.83;;;2.57;;
2267;SDS011;11052;43.338;25.502;2023-06-22T04:02:37;4.20;;;3.17;;
2267;SDS011;11052;43.338;25.502;2023-06-22T04:05:04;4.83;;;2.57;;
2267;SDS011;11052;43.338;25.502;2023-06-22T04:07:32;3.57;;;3.00;;
2267;SDS011;11052;43.338;25.502;2023-06-22T04:09:59;2.60;;;2.40;;
2267;SDS011;11052;43.338;25.502;2023-06-22T04:12:26;3.73;;;3.23;;
2267;SDS011;11052;43.338;25.502;2023-06-22T04:14:53;6.00;;;3.73;;
2267;SDS011;11052;43.338;25.502;2023-06-22T04:17:20;3.87;;;3.10;;
2267;SDS011;11052;43.338;25.502;2023-06-22T04:19:51;4.30;;;3.57;;
2267;SDS011;11052;43.338;25.502;2023-06-22T04:22:18;2.90;;;2.60;;
2267;SDS011;11052;43.338;25.502;2023-06-22T04:24:45;4.57;;;2.97;;
2267;SDS011;11052;43.338;25.502;2023-06-22T04:27:12;2.73;;;2.50;;
2267;SDS011;11052;43.338;25.502;2023-06-22T04:29:40;3.47;;;3.17;;
2267;SDS011;11052;43.338;25.502;2023-06-22T04:32:13;3.90;;;2.50;;
2267;SDS011;11052;43.338;25.502;2023-06-22T04:34:41;7.40;;;4.03;;
2267;SDS011;11052;43.338;25.502;2023-06-22T04:37:09;3.30;;;2.97;;
2267;SDS011;11052;43.338;25.502;2023-06-22T04:39:40;3.77;;;2.47;;
2267;SDS011;11052;43.338;25.502;2023-06-22T04:42:08;6.10;;;3.50;;
2267;SDS011;11052;43.338;25.502;2023-06-22T04:44:35;2.90;;;2.50;;
2267;SDS011;11052;43.338;25.502;2023-06-22T04:47:02;3.17;;;2.43;;
2267;SDS011;11052;43.338;25.502;2023-06-22T04:49:33;4.73;;;4.17;;
2267;SDS011;11052;43.338;25.502;2023-06-22T04:52:03;4.73;;;4.30;;
2267;SDS011;11052;43.338;25.502;2023-06-22T04:54:33;5.07;;;4.23;;
2267;SDS011;11052;43.338;25.502;2023-06-22T04:57:01;4.60;;;3.60;;
2267;SDS011;11052;43.338;25.502;2023-06-22T04:59:29;3.90;;;3.50;;
2267;SDS011;11052;43.338;25.502;2023-06-22T05:01:57;4.73;;;4.00;;
2267;SDS011;11052;43.338;25.502;2023-06-22T05:04:25;3.80;;;3.03;;
2267;SDS011;11052;43.338;25.502;2023-06-22T05:06:57;3.70;;;3.00;;
2267;SDS011;11052;43.338;25.502;2023-06-22T05:09:27;3.80;;;3.10;;
2267;SDS011;11052;43.338;25.502;2023-06-22T05:11:58;4.40;;;3.93;;
2267;SDS011;11052;43.338;25.502;2023-06-22T05:14:25;6.00;;;3.63;;
2267;SDS011;11052;43.338;25.502;2023-06-22T05:16:52;4.00;;;3.23;;
2267;SDS011;11052;43.338;25.502;2023-06-22T05:19:23;5.93;;;4.30;;
2267;SDS011;11052;43.338;25.502;2023-06-22T05:21:50;4.50;;;3.60;;
2267;SDS011;11052;43.338;25.502;2023-06-22T05:24:18;5.27;;;3.43;;
2267;SDS011;11052;43.338;25.502;2023-06-22T05:26:45;4.77;;;3.90;;
2267;SDS011;11052;43.338;25.502;2023-06-22T05:29:13;4.57;;;3.37;;
2267;SDS011;11052;43.338;25.502;2023-06-22T05:31:40;4.57;;;3.90;;
2267;SDS011;11052;43.338;25.502;2023-06-22T05:34:07;3.43;;;3.10;;
2267;SDS011;11052;43.338;25.502;2023-06-22T05:36:35;4.60;;;3.70;;
2267;SDS011;11052;43.338;25.502;2023-06-22T05:39:10;4.30;;;3.77;;
2267;SDS011;11052;43.338;25.502;2023-06-22T05:41:37;19.13;;;4.73;;
2267;SDS011;11052;43.338;25.502;2023-06-22T05:44:04;3.20;;;2.90;;
2267;SDS011;11052;43.338;25.502;2023-06-22T05:46:33;4.87;;;4.37;;
2267;SDS011;11052;43.338;25.502;2023-06-22T05:49:00;3.63;;;3.00;;
2267;SDS011;11052;43.338;25.502;2023-06-22T05:51:28;6.00;;;4.77;;
2267;SDS011;11052;43.338;25.502;2023-06-22T05:53:58;5.10;;;4.70;;
2267;SDS011;11052;43.338;25.502;2023-06-22T05:56:27;4.80;;;3.63;;
2267;SDS011;11052;43.338;25.502;2023-06-22T05:58:59;5.80;;;4.30;;
2267;SDS011;11052;43.338;25.502;2023-06-22T06:01:26;6.00;;;4.83;;
2267;SDS011;11052;43.338;25.502;2023-06-22T06:03:54;6.83;;;5.33;;
2267;SDS011;11052;43.338;25.502;2023-06-22T06:06:21;4.93;;;3.67;;
2267;SDS011;11052;43.338;25.502;2023-06-22T06:08:54;4.57;;;3.90;;
2267;SDS011;11052;43.338;25.502;2023-06-22T06:11:23;4.20;;;3.87;;
2267;SDS011;11052;43.338;25.502;2023-06-22T06:13:54;4.87;;;3.10;;
2267;SDS011;11052;43.338;25.502;2023-06-22T06:16:25;4.80;;;3.90;;
2267;SDS011;11052;43.338;25.502;2023-06-22T06:18:52;5.00;;;4.37;;
2267;SDS011;11052;43.338;25.502;2023-06-22T06:21:21;6.00;;;3.63;;
2267;SDS011;11052;43.338;25.502;2023-06-22T06:23:48;5.13;;;4.40;;
2267;SDS011;11052;43.338;25.502;2023-06-22T06:26:17;4.83;;;3.73;;
2267;SDS011;11052;43.338;25.502;2023-06-22T06:28:53;5.27;;;4.40;;
2267;SDS011;11052;43.338;25.502;2023-06-22T06:31:21;4.50;;;3.83;;
2267;SDS011;11052;43.338;25.502;2023-06-22T06:33:49;4.70;;;4.30;;
2267;SDS011;11052;43.338;25.502;2023-06-22T06:36:17;3.97;;;3.67;;
2267;SDS011;11052;43.338;25.502;2023-06-22T06:38:44;4.50;;;3.70;;
2267;SDS011;11052;43.338;25.502;2023-06-22T06:41:12;3.57;;;3.23;;
2267;SDS011;11052;43.338;25.502;2023-06-22T06:43:39;4.37;;;3.40;;
2267;SDS011;11052;43.338;25.502;2023-06-22T06:46:08;3.73;;;3.40;;
2267;SDS011;11052;43.338;25.502;2023-06-22T06:48:35;6.10;;;4.77;;
2267;SDS011;11052;43.338;25.502;2023-06-22T06:51:02;3.33;;;2.93;;
2267;SDS011;11052;43.338;25.502;2023-06-22T06:53:30;5.40;;;3.93;;
2267;SDS011;11052;43.338;25.502;2023-06-22T06:55:57;5.70;;;3.60;;
2267;SDS011;11052;43.338;25.502;2023-06-22T06:58:25;4.30;;;3.90;;
2267;SDS011;11052;43.338;25.502;2023-06-22T07:00:52;4.30;;;3.87;;
2267;SDS011;11052;43.338;25.502;2023-06-22T07:03:19;2.83;;;2.63;;
2267;SDS011;11052;43.338;25.502;2023-06-22T07:05:46;3.27;;;2.97;;
2267;SDS011;11052;43.338;25.502;2023-06-22T07:08:13;3.50;;;3.20;;
2267;SDS011;11052;43.338;25.502;2023-06-22T07:10:41;4.20;;;2.80;;
2267;SDS011;11052;43.338;25.502;2023-06-22T07:13:08;2.87;;;2.60;;
2267;SDS011;11052;43.338;25.502;2023-06-22T07:15:35;3.03;;;2.50;;
2267;SDS011;11052;43.338;25.502;2023-06-22T07:18:02;2.67;;;2.47;;
2267;SDS011;11052;43.338;25.502;2023-06-22T07:20:29;5.20;;;3.17;;
2267;SDS011;11052;43.338;25.502;2023-06-22T07:22:57;3.20;;;2.30;;
2267;SDS011;11052;43.338;25.502;2023-06-22T07:25:24;2.07;;;1.90;;
2267;SDS011;11052;43.338;25.502;2023-06-22T07:28:00;2.60;;;2.40;;
2267;SDS011;11052;43.338;25.502;2023-06-22T07:30:28;2.53;;;2.27;;
2267;SDS011;11052;43.338;25.502;2023-06-22T07:32:56;3.47;;;3.00;;
2267;SDS011;11052;43.338;25.502;2023-06-22T07:35:28;2.30;;;2.10;;
2267;SDS011;11052;43.338;25.502;2023-06-22T07:37:56;5.80;;;3.00;;
2267;SDS011;11052;43.338;25.502;2023-06-22T07:40:23;2.70;;;2.37;;
2267;SDS011;11052;43.338;25.502;2023-06-22T07:42:50;3.40;;;2.30;;
2267;SDS011;11052;43.338;25.502;2023-06-22T07:45:20;3.30;;;2.80;;
2267;SDS011;11052;43.338;25.502;2023-06-22T07:47:47;3.33;;;2.60;;
2267;SDS011;11052;43.338;25.502;2023-06-22T07:50:15;3.90;;;3.00;;
2267;SDS011;11052;43.338;25.502;2023-06-22T07:52:45;3.87;;;2.77;;
2267;SDS011;11052;43.338;25.502;2023-06-22T07:55:13;3.00;;;2.60;;
2267;SDS011;11052;43.338;25.502;2023-06-22T07:57:40;2.60;;;1.97;;
2267;SDS011;11052;43.338;25.502;2023-06-22T08:00:07;1.80;;;1.53;;
2267;SDS011;11052;43.338;25.502;2023-06-22T08:02:41;3.67;;;3.20;;
2267;SDS011;11052;43.338;25.502;2023-06-22T08:05:09;2.40;;;1.67;;
2267;SDS011;11052;43.338;25.502;2023-06-22T08:07:37;2.50;;;2.10;;
2267;SDS011;11052;43.338;25.502;2023-06-22T08:10:04;2.30;;;2.07;;
2267;SDS011;11052;43.338;25.502;2023-06-22T08:12:32;2.33;;;1.77;;
2267;SDS011;11052;43.338;25.502;2023-06-22T08:14:59;2.70;;;2.37;;
2267;SDS011;11052;43.338;25.502;2023-06-22T08:17:26;2.30;;;2.10;;
2267;SDS011;11052;43.338;25.502;2023-06-22T08:19:55;2.13;;;1.93;;
2267;SDS011;11052;43.338;25.502;2023-06-22T08:22:22;2.70;;;2.07;;
2267;SDS011;11052;43.338;25.502;2023-06-22T08:24:49;3.27;;;2.27;;
2267;SDS011;11052;43.338;25.502;2023-06-22T08:27:16;2.20;;;2.00;;
2267;SDS011;11052;43.338;25.502;2023-06-22T08:29:46;3.83;;;2.80;;
2267;SDS011;11052;43.338;25.502;2023-06-22T08:32:14;2.80;;;1.97;;
2267;SDS011;11052;43.338;25.502;2023-06-22T08:34:41;2.50;;;2.30;;
2267;SDS011;11052;43.338;25.502;2023-06-22T08:37:10;2.37;;;2.17;;
2267;SDS011;11052;43.338;25.502;2023-06-22T08:39:37;2.40;;;2.20;;
2267;SDS011;11052;43.338;25.502;2023-06-22T08:42:04;4.03;;;1.90;;
2267;SDS011;11052;43.338;25.502;2023-06-22T08:44:32;3.10;;;2.80;;
2267;SDS011;11052;43.338;25.502;2023-06-22T08:46:59;3.50;;;1.97;;
2267;SDS011;11052;43.338;25.502;2023-06-22T08:49:27;3.00;;;2.70;;
2267;SDS011;11052;43.338;25.502;2023-06-22T08:51:54;4.77;;;2.20;;
2267;SDS011;11052;43.338;25.502;2023-06-22T08:54:23;3.00;;;2.77;;
2267;SDS011;11052;43.338;25.502;2023-06-22T08:56:50;2.57;;;2.37;;
2267;SDS011;11052;43.338;25.502;2023-06-22T08:59:18;3.93;;;1.97;;
2267;SDS011;11052;43.338;25.502;2023-06-22T09:01:45;1.57;;;1.47;;
2267;SDS011;11052;43.338;25.502;2023-06-22T09:04:14;2.07;;;1.73;;
2267;SDS011;11052;43.338;25.502;2023-06-22T09:06:41;2.80;;;1.60;;
2267;SDS011;11052;43.338;25.502;2023-06-22T09:09:11;3.20;;;2.00;;
2267;SDS011;11052;43.338;25.502;2023-06-22T09:11:40;2.30;;;2.10;;
2267;SDS011;11052;43.338;25.502;2023-06-22T09:14:07;2.73;;;2.07;;
2267;SDS011;11052;43.338;25.502;2023-06-22T09:16:35;3.70;;;1.67;;
2267;SDS011;11052;43.338;25.502;2023-06-22T09:19:02;2.40;;;1.80;;
2267;SDS011;11052;43.338;25.502;2023-06-22T09:21:29;2.73;;;2.20;;
2267;SDS011;11052;43.338;25.502;2023-06-22T09:23:56;1.97;;;1.57;;
2267;SDS011;11052;43.338;25.502;2023-06-22T09:26:23;2.77;;;2.33;;
2267;SDS011;11052;43.338;25.502;2023-06-22T09:28:52;3.17;;;2.80;;
2267;SDS011;11052;43.338;25.502;2023-06-22T09:31:19;2.10;;;1.83;;
2267;SDS011;11052;43.338;25.502;2023-06-22T09:33:50;2.40;;;2.20;;
2267;SDS011;11052;43.338;25.502;2023-06-22T09:36:18;2.47;;;2.00;;
2267;SDS011;11052;43.338;25.502;2023-06-22T09:38:45;5.13;;;2.27;;
2267;SDS011;11052;43.338;25.502;2023-06-22T09:41:12;2.60;;;2.10;;
2267;SDS011;11052;43.338;25.502;2023-06-22T09:43:39;2.53;;;2.23;;
2267;SDS011;11052;43.338;25.502;2023-06-22T09:46:11;3.00;;;2.30;;
2267;SDS011;11052;43.338;25.502;2023-06-22T09:48:38;2.60;;;2.40;;
2267;SDS011;11052;43.338;25.502;2023-06-22T09:51:06;2.63;;;2.43;;
2267;SDS011;11052;43.338;25.502;2023-06-22T09:53:33;2.37;;;2.17;;
2267;SDS011;11052;43.338;25.502;2023-06-22T09:56:01;3.07;;;2.57;;
2267;SDS011;11052;43.338;25.502;2023-06-22T09:58:28;2.13;;;1.90;;
2267;SDS011;11052;43.338;25.502;2023-06-22T10:00:55;4.60;;;2.73;;
2267;SDS011;11052;43.338;25.502;2023-06-22T10:03:23;3.00;;;2.50;;
2267;SDS011;11052;43.338;25.502;2023-06-22T10:05:51;2.30;;;1.70;;
2267;SDS011;11052;43.338;25.502;2023-06-22T10:08:18;2.03;;;1.83;;
2267;SDS011;11052;43.338;25.502;2023-06-22T10:10:45;2.17;;;1.97;;
2267;SDS011;11052;43.338;25.502;2023-06-22T10:13:12;2.60;;;2.40;;
2267;SDS011;11052;43.338;25.502;2023-06-22T10:15:40;2.07;;;1.87;;
2267;SDS011;11052;43.338;25.502;2023-06-22T10:18:08;1.97;;;1.77;;
2267;SDS011;11052;43.338;25.502;2023-06-22T10:20:36;3.17;;;1.83;;
2267;SDS011;11052;43.338;25.502;2023-06-22T10:23:03;4.50;;;2.13;;
2267;SDS011;11052;43.338;25.502;2023-06-22T10:25:30;2.10;;;1.80;;
2267;SDS011;11052;43.338;25.502;2023-06-22T10:27:58;2.13;;;1.67;;
2267;SDS011;11052;43.338;25.502;2023-06-22T10:30:25;3.60;;;2.73;;
2267;SDS011;11052;43.338;25.502;2023-06-22T10:32:54;2.40;;;2.07;;
2267;SDS011;11052;43.338;25.502;2023-06-22T10:35:21;1.73;;;1.50;;
2267;SDS011;11052;43.338;25.502;2023-06-22T10:37:50;2.13;;;1.87;;
2267;SDS011;11052;43.338;25.502;2023-06-22T10:40:17;1.80;;;1.60;;
2267;SDS011;11052;43.338;25.502;2023-06-22T10:42:45;2.30;;;1.50;;
2267;SDS011;11052;43.338;25.502;2023-06-22T10:45:12;4.00;;;3.40;;
2267;SDS011;11052;43.338;25.502;2023-06-22T10:47:39;2.17;;;1.97;;
2267;SDS011;11052;43.338;25.502;2023-06-22T10:50:07;3.20;;;2.17;;
2267;SDS011;11052;43.338;25.502;2023-06-22T10:52:35;1.67;;;1.57;;
2267;SDS011;11052;43.338;25.502;2023-06-22T10:55:05;3.07;;;2.77;;
2267;SDS011;11052;43.338;25.502;2023-06-22T10:57:33;4.30;;;1.87;;
2267;SDS011;11052;43.338;25.502;2023-06-22T11:00:00;2.70;;;2.33;;
2267;SDS011;11052;43.338;25.502;2023-06-22T11:02:29;2.50;;;2.13;;
2267;SDS011;11052;43.338;25.502;2023-06-22T11:04:56;2.83;;;2.10;;
2267;SDS011;11052;43.338;25.502;2023-06-22T11:07:25;13.13;;;2.10;;
2267;SDS011;11052;43.338;25.502;2023-06-22T11:09:54;2.70;;;2.40;;
2267;SDS011;11052;43.338;25.502;2023-06-22T11:12:22;2.30;;;2.10;;
2267;SDS011;11052;43.338;25.502;2023-06-22T11:14:49;3.23;;;2.20;;
2267;SDS011;11052;43.338;25.502;2023-06-22T11:17:17;1.83;;;1.57;;
2267;SDS011;11052;43.338;25.502;2023-06-22T11:19:44;2.73;;;2.53;;
2267;SDS011;11052;43.338;25.502;2023-06-22T11:22:12;2.60;;;2.10;;
2267;SDS011;11052;43.338;25.502;2023-06-22T11:24:39;2.50;;;2.10;;
2267;SDS011;11052;43.338;25.502;2023-06-22T11:27:07;2.37;;;1.87;;
2267;SDS011;11052;43.338;25.502;2023-06-22T11:29:35;1.80;;;1.70;;
2267;SDS011;11052;43.338;25.502;2023-06-22T11:32:05;1.53;;;1.30;;
2267;SDS011;11052;43.338;25.502;2023-06-22T11:34:33;2.77;;;2.23;;
2267;SDS011;11052;43.338;25.502;2023-06-22T11:37:00;2.33;;;2.13;;
2267;SDS011;11052;43.338;25.502;2023-06-22T11:39:27;2.53;;;2.10;;
2267;SDS011;11052;43.338;25.502;2023-06-22T11:41:54;1.87;;;1.60;;
2267;SDS011;11052;43.338;25.502;2023-06-22T11:44:22;2.13;;;1.93;;
2267;SDS011;11052;43.338;25.502;2023-06-22T11:46:50;3.00;;;2.00;;
2267;SDS011;11052;43.338;25.502;2023-06-22T11:49:17;2.50;;;2.03;;
2267;SDS011;11052;43.338;25.502;2023-06-22T11:51:44;2.40;;;2.17;;
2267;SDS011;11052;43.338;25.502;2023-06-22T11:54:11;2.23;;;2.03;;
2267;SDS011;11052;43.338;25.502;2023-06-22T11:56:42;2.30;;;2.10;;
2267;SDS011;11052;43.338;25.502;2023-06-22T11:59:09;3.07;;;2.23;;
2267;SDS011;11052;43.338;25.502;2023-06-22T12:01:36;2.70;;;2.20;;
2267;SDS011;11052;43.338;25.502;2023-06-22T12:04:05;2.80;;;2.20;;
2267;SDS011;11052;43.338;25.502;2023-06-22T12:06:32;3.60;;;2.73;;
2267;SDS011;11052;43.338;25.502;2023-06-22T12:09:01;2.30;;;2.10;;
2267;SDS011;11052;43.338;25.502;2023-06-22T12:11:32;3.07;;;2.03;;
2267;SDS011;11052;43.338;25.502;2023-06-22T12:14:00;2.27;;;1.90;;
2267;SDS011;11052;43.338;25.502;2023-06-22T12:16:27;2.40;;;2.10;;
2267;SDS011;11052;43.338;25.502;2023-06-22T12:18:57;3.27;;;2.10;;
2267;SDS011;11052;43.338;25.502;2023-06-22T12:21:25;1.93;;;1.80;;
2267;SDS011;11052;43.338;25.502;2023-06-22T12:23:53;2.40;;;2.20;;
2267;SDS011;11052;43.338;25.502;2023-06-22T12:26:20;2.37;;;2.17;;
2267;SDS011;11052;43.338;25.502;2023-06-22T12:28:48;2.67;;;2.00;;
2267;SDS011;11052;43.338;25.502;2023-06-22T12:31:15;4.97;;;2.30;;
2267;SDS011;11052;43.338;25.502;2023-06-22T12:33:42;2.60;;;2.07;;
2267;SDS011;11052;43.338;25.502;2023-06-22T12:36:09;2.83;;;2.63;;
2267;SDS011;11052;43.338;25.502;2023-06-22T12:38:38;2.60;;;2.03;;
2267;SDS011;11052;43.338;25.502;2023-06-22T12:41:05;1.87;;;1.57;;
2267;SDS011;11052;43.338;25.502;2023-06-22T12:43:32;2.67;;;2.33;;
2267;SDS011;11052;43.338;25.502;2023-06-22T12:45:59;3.53;;;2.47;;
2267;SDS011;11052;43.338;25.502;2023-06-22T12:48:27;2.43;;;2.07;;
2267;SDS011;11052;43.338;25.502;2023-06-22T12:50:54;2.40;;;2.10;;
2267;SDS011;11052;43.338;25.502;2023-06-22T12:53:22;2.57;;;1.80;;
2267;SDS011;11052;43.338;25.502;2023-06-22T12:55:54;2.23;;;2.03;;
2267;SDS011;11052;43.338;25.502;2023-06-22T12:58:21;2.70;;;1.77;;
2267;SDS011;11052;43.338;25.502;2023-06-22T13:00:48;3.17;;;1.23;;
2267;SDS011;11052;43.338;25.502;2023-06-22T13:03:15;2.50;;;2.03;;
2267;SDS011;11052;43.338;25.502;2023-06-22T13:05:42;2.20;;;1.97;;
2267;SDS011;11052;43.338;25.502;2023-06-22T13:08:09;2.50;;;2.30;;
2267;SDS011;11052;43.338;25.502;2023-06-22T13:10:37;2.47;;;2.27;;
2267;SDS011;11052;43.338;25.502;2023-06-22T13:13:05;2.70;;;1.77;;
2267;SDS011;11052;43.338;25.502;2023-06-22T13:15:32;3.10;;;2.00;;
2267;SDS011;11052;43.338;25.502;2023-06-22T13:18:00;2.33;;;2.13;;
2267;SDS011;11052;43.338;25.502;2023-06-22T13:20:28;2.27;;;2.07;;
2267;SDS011;11052;43.338;25.502;2023-06-22T13:22:55;4.47;;;2.83;;
2267;SDS011;11052;43.338;25.502;2023-06-22T13:25:23;2.57;;;2.10;;
2267;SDS011;11052;43.338;25.502;2023-06-22T13:27:51;1.90;;;1.70;;
2267;SDS011;11052;43.338;25.502;2023-06-22T13:30:20;2.23;;;2.00;;
2267;SDS011;11052;43.338;25.502;2023-06-22T13:32:47;4.30;;;2.90;;
2267;SDS011;11052;43.338;25.502;2023-06-22T13:35:14;3.43;;;2.90;;
2267;SDS011;11052;43.338;25.502;2023-06-22T13:37:41;1.70;;;1.37;;
2267;SDS011;11052;43.338;25.502;2023-06-22T13:40:09;2.13;;;1.80;;
2267;SDS011;11052;43.338;25.502;2023-06-22T13:42:36;2.60;;;2.20;;
2267;SDS011;11052;43.338;25.502;2023-06-22T13:45:03;2.60;;;2.40;;
2267;SDS011;11052;43.338;25.502;2023-06-22T13:47:33;2.70;;;2.00;;
2267;SDS011;11052;43.338;25.502;2023-06-22T13:50:00;2.70;;;2.50;;
2267;SDS011;11052;43.338;25.502;2023-06-22T13:52:27;2.27;;;2.07;;
2267;SDS011;11052;43.338;25.502;2023-06-22T13:54:54;3.40;;;2.33;;
2267;SDS011;11052;43.338;25.502;2023-06-22T13:57:21;3.17;;;2.33;;
2267;SDS011;11052;43.338;25.502;2023-06-22T13:59:48;2.40;;;2.07;;
2267;SDS011;11052;43.338;25.502;2023-06-22T14:02:15;3.53;;;2.57;;
2267;SDS011;11052;43.338;25.502;2023-06-22T14:04:44;2.83;;;2.53;;
2267;SDS011;11052;43.338;25.502;2023-06-22T14:07:11;2.60;;;2.07;;
2267;SDS011;11052;43.338;25.502;2023-06-22T14:09:39;3.33;;;2.90;;
2267;SDS011;11052;43.338;25.502;2023-06-22T14:12:06;3.37;;;2.10;;
2267;SDS011;11052;43.338;25.502;2023-06-22T14:14:33;2.60;;;2.13;;
2267;SDS011;11052;43.338;25.502;2023-06-22T14:17:00;2.60;;;2.33;;
2267;SDS011;11052;43.338;25.502;2023-06-22T14:19:27;2.77;;;2.53;;
2267;SDS011;11052;43.338;25.502;2023-06-22T14:21:56;2.60;;;1.97;;
2267;SDS011;11052;43.338;25.502;2023-06-22T14:24:23;3.73;;;2.60;;
2267;SDS011;11052;43.338;25.502;2023-06-22T14:26:50;2.00;;;1.60;;
2267;SDS011;11052;43.338;25.502;2023-06-22T14:29:18;2.50;;;2.00;;
2267;SDS011;11052;43.338;25.502;2023-06-22T14:31:45;4.30;;;2.83;;
2267;SDS011;11052;43.338;25.502;2023-06-22T14:34:13;4.70;;;3.33;;
2267;SDS011;11052;43.338;25.502;2023-06-22T14:36:42;2.90;;;2.50;;
2267;SDS011;11052;43.338;25.502;2023-06-22T14:39:17;4.37;;;2.50;;
2267;SDS011;11052;43.338;25.502;2023-06-22T14:41:46;3.03;;;2.00;;
2267;SDS011;11052;43.338;25.502;2023-06-22T14:44:15;4.00;;;2.93;;
2267;SDS011;11052;43.338;25.502;2023-06-22T14:46:42;2.00;;;1.80;;
2267;SDS011;11052;43.338;25.502;2023-06-22T14:51:52;2.10;;;1.90;;
2267;SDS011;11052;43.338;25.502;2023-06-22T14:54:21;2.23;;;2.03;;
2267;SDS011;11052;43.338;25.502;2023-06-22T14:56:50;3.90;;;1.80;;